sensor_id;sensor_type;location;lat;lon;timestamp;temperature;humidity
69895;DHT22;57172;52.034;5.090;2024-03-23T00:54:04;8.60;94.20
69895;DHT22;57172;52.034;5.090;2024-03-23T00:56:30;8.70;94.20
69895;DHT22;57172;52.034;5.090;2024-03-23T00:58:56;8.60;94.20
69895;DHT22;57172;52.034;5.090;2024-03-23T01:01:22;8.70;94.20
69895;DHT22;57172;52.034;5.090;2024-03-23T01:03:48;8.60;94.10
69895;DHT22;57172;52.034;5.090;2024-03-23T01:06:13;8.60;94.00
69895;DHT22;57172;52.034;5.090;2024-03-23T01:08:39;8.60;93.90
69895;DHT22;57172;52.034;5.090;2024-03-23T01:11:05;8.60;94.00
69895;DHT22;57172;52.034;5.090;2024-03-23T01:13:31;8.60;94.00
69895;DHT22;57172;52.034;5.090;2024-03-23T01:15:57;8.60;93.90
69895;DHT22;57172;52.034;5.090;2024-03-23T01:18:24;8.70;93.80
69895;DHT22;57172;52.034;5.090;2024-03-23T01:20:52;8.70;93.50
69895;DHT22;57172;52.034;5.090;2024-03-23T01:23:18;8.70;93.40
69895;DHT22;57172;52.034;5.090;2024-03-23T01:25:44;8.60;93.20
69895;DHT22;57172;52.034;5.090;2024-03-23T01:28:16;8.60;93.10
69895;DHT22;57172;52.034;5.090;2024-03-23T01:30:42;8.60;92.90
69895;DHT22;57172;52.034;5.090;2024-03-23T01:33:08;8.60;92.70
69895;DHT22;57172;52.034;5.090;2024-03-23T01:35:34;8.50;92.50
69895;DHT22;57172;52.034;5.090;2024-03-23T01:38:00;8.50;92.30
69895;DHT22;57172;52.034;5.090;2024-03-23T01:40:26;8.40;92.10
69895;DHT22;57172;52.034;5.090;2024-03-23T01:42:57;8.40;92.10
69895;DHT22;57172;52.034;5.090;2024-03-23T01:45:23;8.30;92.00
69895;DHT22;57172;52.034;5.090;2024-03-23T01:47:50;8.20;92.00
69895;DHT22;57172;52.034;5.090;2024-03-23T01:50:17;8.20;92.00
69895;DHT22;57172;52.034;5.090;2024-03-23T01:52:43;8.10;91.90
69895;DHT22;57172;52.034;5.090;2024-03-23T01:55:10;8.00;91.90
69895;DHT22;57172;52.034;5.090;2024-03-23T01:57:36;8.00;92.10
69895;DHT22;57172;52.034;5.090;2024-03-23T02:00:02;7.90;92.00
69895;DHT22;57172;52.034;5.090;2024-03-23T02:02:43;7.90;92.10
69895;DHT22;57172;52.034;5.090;2024-03-23T02:05:09;7.80;92.10
69895;DHT22;57172;52.034;5.090;2024-03-23T02:07:35;7.80;92.20
69895;DHT22;57172;52.034;5.090;2024-03-23T02:10:02;7.70;92.20
69895;DHT22;57172;52.034;5.090;2024-03-23T02:12:28;7.70;92.30
69895;DHT22;57172;52.034;5.090;2024-03-23T02:14:53;7.70;92.20
69895;DHT22;57172;52.034;5.090;2024-03-23T02:17:19;7.70;92.20
69895;DHT22;57172;52.034;5.090;2024-03-23T02:19:45;7.60;92.20
69895;DHT22;57172;52.034;5.090;2024-03-23T02:22:12;7.60;92.20
69895;DHT22;57172;52.034;5.090;2024-03-23T02:24:38;7.60;92.10
69895;DHT22;57172;52.034;5.090;2024-03-23T02:27:04;7.60;91.90
69895;DHT22;57172;52.034;5.090;2024-03-23T02:29:30;7.50;91.80
69895;DHT22;57172;52.034;5.090;2024-03-23T02:31:56;7.50;91.80
69895;DHT22;57172;52.034;5.090;2024-03-23T02:34:21;7.50;91.70
69895;DHT22;57172;52.034;5.090;2024-03-23T02:36:47;7.40;91.70
69895;DHT22;57172;52.034;5.090;2024-03-23T02:39:13;7.40;91.70
69895;DHT22;57172;52.034;5.090;2024-03-23T02:41:40;7.40;91.60
69895;DHT22;57172;52.034;5.090;2024-03-23T02:44:05;7.30;91.50
69895;DHT22;57172;52.034;5.090;2024-03-23T02:46:32;7.30;91.50
69895;DHT22;57172;52.034;5.090;2024-03-23T02:48:58;7.30;91.40
69895;DHT22;57172;52.034;5.090;2024-03-23T02:51:24;7.20;91.30
69895;DHT22;57172;52.034;5.090;2024-03-23T02:53:49;7.20;91.30
69895;DHT22;57172;52.034;5.090;2024-03-23T02:56:15;7.20;91.20
69895;DHT22;57172;52.034;5.090;2024-03-23T02:58:45;7.20;91.00
69895;DHT22;57172;52.034;5.090;2024-03-23T03:01:11;7.20;90.80
69895;DHT22;57172;52.034;5.090;2024-03-23T03:03:37;7.10;90.70
69895;DHT22;57172;52.034;5.090;2024-03-23T03:06:03;7.10;90.80
69895;DHT22;57172;52.034;5.090;2024-03-23T03:08:29;7.10;90.70
69895;DHT22;57172;52.034;5.090;2024-03-23T03:10:55;7.00;90.60
69895;DHT22;57172;52.034;5.090;2024-03-23T03:13:21;7.00;90.60
69895;DHT22;57172;52.034;5.090;2024-03-23T03:15:47;7.00;90.40
69895;DHT22;57172;52.034;5.090;2024-03-23T03:18:12;7.00;90.30
69895;DHT22;57172;52.034;5.090;2024-03-23T03:20:39;7.00;90.20
69895;DHT22;57172;52.034;5.090;2024-03-23T03:23:06;6.90;90.10
69895;DHT22;57172;52.034;5.090;2024-03-23T03:25:32;6.90;90.10
69895;DHT22;57172;52.034;5.090;2024-03-23T03:27:58;6.90;90.00
69895;DHT22;57172;52.034;5.090;2024-03-23T03:30:24;6.90;89.90
69895;DHT22;57172;52.034;5.090;2024-03-23T03:32:54;6.80;89.80
69895;DHT22;57172;52.034;5.090;2024-03-23T03:35:21;6.80;89.70
69895;DHT22;57172;52.034;5.090;2024-03-23T03:37:46;6.80;89.70
69895;DHT22;57172;52.034;5.090;2024-03-23T03:40:12;6.70;89.60
69895;DHT22;57172;52.034;5.090;2024-03-23T03:42:41;6.70;89.70
69895;DHT22;57172;52.034;5.090;2024-03-23T03:45:07;6.60;89.70
69895;DHT22;57172;52.034;5.090;2024-03-23T03:47:33;6.60;89.70
69895;DHT22;57172;52.034;5.090;2024-03-23T03:49:59;6.60;89.70
69895;DHT22;57172;52.034;5.090;2024-03-23T03:52:25;6.50;89.70
69895;DHT22;57172;52.034;5.090;2024-03-23T03:54:51;6.50;89.70
69895;DHT22;57172;52.034;5.090;2024-03-23T03:57:17;6.40;89.70
69895;DHT22;57172;52.034;5.090;2024-03-23T03:59:44;6.40;89.70
69895;DHT22;57172;52.034;5.090;2024-03-23T04:02:09;6.40;89.70
69895;DHT22;57172;52.034;5.090;2024-03-23T04:04:35;6.40;89.70
69895;DHT22;57172;52.034;5.090;2024-03-23T04:07:02;6.40;89.60
69895;DHT22;57172;52.034;5.090;2024-03-23T04:09:28;6.40;89.50
69895;DHT22;57172;52.034;5.090;2024-03-23T04:11:56;6.40;89.40
69895;DHT22;57172;52.034;5.090;2024-03-23T04:14:21;6.40;89.30
69895;DHT22;57172;52.034;5.090;2024-03-23T04:16:47;6.40;89.20
69895;DHT22;57172;52.034;5.090;2024-03-23T04:19:13;6.40;89.10
69895;DHT22;57172;52.034;5.090;2024-03-23T04:21:40;6.40;89.00
69895;DHT22;57172;52.034;5.090;2024-03-23T04:24:06;6.30;88.90
69895;DHT22;57172;52.034;5.090;2024-03-23T04:26:42;6.30;88.80
69895;DHT22;57172;52.034;5.090;2024-03-23T04:29:08;6.30;88.80
69895;DHT22;57172;52.034;5.090;2024-03-23T04:31:34;6.30;88.90
69895;DHT22;57172;52.034;5.090;2024-03-23T04:34:01;6.30;88.80
69895;DHT22;57172;52.034;5.090;2024-03-23T04:36:27;6.30;88.70
69895;DHT22;57172;52.034;5.090;2024-03-23T04:38:53;6.30;88.70
69895;DHT22;57172;52.034;5.090;2024-03-23T04:41:19;6.30;88.50
69895;DHT22;57172;52.034;5.090;2024-03-23T04:43:45;6.30;88.50
69895;DHT22;57172;52.034;5.090;2024-03-23T04:46:11;6.30;88.40
69895;DHT22;57172;52.034;5.090;2024-03-23T04:48:36;6.30;88.30
69895;DHT22;57172;52.034;5.090;2024-03-23T04:51:03;6.30;88.20
69895;DHT22;57172;52.034;5.090;2024-03-23T04:53:29;6.30;88.00
69895;DHT22;57172;52.034;5.090;2024-03-23T04:55:56;6.30;88.00
69895;DHT22;57172;52.034;5.090;2024-03-23T04:58:22;6.30;88.00
69895;DHT22;57172;52.034;5.090;2024-03-23T05:00:56;6.30;87.90
69895;DHT22;57172;52.034;5.090;2024-03-23T05:03:23;6.30;87.70
69895;DHT22;57172;52.034;5.090;2024-03-23T05:05:49;6.30;87.70
69895;DHT22;57172;52.034;5.090;2024-03-23T05:08:18;6.30;87.50
69895;DHT22;57172;52.034;5.090;2024-03-23T05:10:44;6.20;87.50
69895;DHT22;57172;52.034;5.090;2024-03-23T05:13:11;6.20;87.40
69895;DHT22;57172;52.034;5.090;2024-03-23T05:15:37;6.20;87.40
69895;DHT22;57172;52.034;5.090;2024-03-23T05:18:04;6.20;87.00
69895;DHT22;57172;52.034;5.090;2024-03-23T05:20:31;6.20;87.10
69895;DHT22;57172;52.034;5.090;2024-03-23T05:22:57;6.20;86.80
69895;DHT22;57172;52.034;5.090;2024-03-23T05:25:23;6.20;87.00
69895;DHT22;57172;52.034;5.090;2024-03-23T05:27:49;6.20;86.90
69895;DHT22;57172;52.034;5.090;2024-03-23T05:30:15;6.30;86.80
69895;DHT22;57172;52.034;5.090;2024-03-23T05:32:41;6.20;86.90
69895;DHT22;57172;52.034;5.090;2024-03-23T05:35:09;6.30;87.00
69895;DHT22;57172;52.034;5.090;2024-03-23T05:37:35;6.30;87.20
69895;DHT22;57172;52.034;5.090;2024-03-23T05:40:01;6.30;87.10
69895;DHT22;57172;52.034;5.090;2024-03-23T05:42:27;6.30;87.10
69895;DHT22;57172;52.034;5.090;2024-03-23T05:44:53;6.30;86.90
69895;DHT22;57172;52.034;5.090;2024-03-23T05:47:19;6.40;86.80
69895;DHT22;57172;52.034;5.090;2024-03-23T05:49:48;6.40;86.70
69895;DHT22;57172;52.034;5.090;2024-03-23T05:52:14;6.40;86.50
69895;DHT22;57172;52.034;5.090;2024-03-23T05:54:40;6.40;86.40
69895;DHT22;57172;52.034;5.090;2024-03-23T05:57:06;6.40;86.30
69895;DHT22;57172;52.034;5.090;2024-03-23T05:59:33;6.40;86.40
69895;DHT22;57172;52.034;5.090;2024-03-23T06:01:59;6.40;86.50
69895;DHT22;57172;52.034;5.090;2024-03-23T06:04:25;6.40;86.40
69895;DHT22;57172;52.034;5.090;2024-03-23T06:06:51;6.50;86.30
69895;DHT22;57172;52.034;5.090;2024-03-23T06:09:20;6.50;86.20
69895;DHT22;57172;52.034;5.090;2024-03-23T06:11:46;6.50;86.00
69895;DHT22;57172;52.034;5.090;2024-03-23T06:14:12;6.50;86.10
69895;DHT22;57172;52.034;5.090;2024-03-23T06:16:38;6.50;86.20
69895;DHT22;57172;52.034;5.090;2024-03-23T06:19:04;6.60;86.60
69895;DHT22;57172;52.034;5.090;2024-03-23T06:21:32;6.60;86.60
69895;DHT22;57172;52.034;5.090;2024-03-23T06:23:59;6.60;86.60
69895;DHT22;57172;52.034;5.090;2024-03-23T06:26:25;6.70;86.50
69895;DHT22;57172;52.034;5.090;2024-03-23T06:28:50;6.70;86.50
69895;DHT22;57172;52.034;5.090;2024-03-23T06:31:16;6.80;86.50
69895;DHT22;57172;52.034;5.090;2024-03-23T06:33:42;6.80;86.40
69895;DHT22;57172;52.034;5.090;2024-03-23T06:36:12;6.80;86.30
69895;DHT22;57172;52.034;5.090;2024-03-23T06:38:38;6.80;86.40
69895;DHT22;57172;52.034;5.090;2024-03-23T06:41:04;6.80;86.30
69895;DHT22;57172;52.034;5.090;2024-03-23T06:43:30;6.80;86.30
69895;DHT22;57172;52.034;5.090;2024-03-23T06:45:56;6.80;86.40
69895;DHT22;57172;52.034;5.090;2024-03-23T06:48:22;6.80;86.40
69895;DHT22;57172;52.034;5.090;2024-03-23T06:50:48;6.80;86.30
69895;DHT22;57172;52.034;5.090;2024-03-23T06:53:14;6.90;86.30
69895;DHT22;57172;52.034;5.090;2024-03-23T06:55:41;6.90;86.40
69895;DHT22;57172;52.034;5.090;2024-03-23T06:58:08;6.90;86.40
69895;DHT22;57172;52.034;5.090;2024-03-23T07:00:34;7.00;86.50
69895;DHT22;57172;52.034;5.090;2024-03-23T07:03:00;7.00;86.60
69895;DHT22;57172;52.034;5.090;2024-03-23T07:05:26;7.10;86.70
69895;DHT22;57172;52.034;5.090;2024-03-23T07:07:52;7.20;86.60
69895;DHT22;57172;52.034;5.090;2024-03-23T07:10:18;7.30;86.50
69895;DHT22;57172;52.034;5.090;2024-03-23T07:12:44;7.30;86.20
69895;DHT22;57172;52.034;5.090;2024-03-23T07:15:10;7.40;86.20
69895;DHT22;57172;52.034;5.090;2024-03-23T07:17:35;7.40;85.70
69895;DHT22;57172;52.034;5.090;2024-03-23T07:20:02;7.50;85.80
69895;DHT22;57172;52.034;5.090;2024-03-23T07:22:31;7.50;85.60
69895;DHT22;57172;52.034;5.090;2024-03-23T07:25:00;7.70;85.70
69895;DHT22;57172;52.034;5.090;2024-03-23T07:27:26;7.70;85.40
69895;DHT22;57172;52.034;5.090;2024-03-23T07:29:52;7.90;85.60
69895;DHT22;57172;52.034;5.090;2024-03-23T07:32:18;7.90;85.10
69895;DHT22;57172;52.034;5.090;2024-03-23T07:34:44;8.00;84.20
69895;DHT22;57172;52.034;5.090;2024-03-23T07:37:10;8.10;85.60
69895;DHT22;57172;52.034;5.090;2024-03-23T07:39:36;8.30;84.90
69895;DHT22;57172;52.034;5.090;2024-03-23T07:42:03;8.40;85.10
69895;DHT22;57172;52.034;5.090;2024-03-23T07:44:29;8.60;85.10
69895;DHT22;57172;52.034;5.090;2024-03-23T07:46:54;8.70;85.30
69895;DHT22;57172;52.034;5.090;2024-03-23T07:49:20;8.90;85.00
69895;DHT22;57172;52.034;5.090;2024-03-23T07:51:46;9.20;84.80
69895;DHT22;57172;52.034;5.090;2024-03-23T07:54:12;9.30;83.90
69895;DHT22;57172;52.034;5.090;2024-03-23T07:56:38;9.40;82.40
69895;DHT22;57172;52.034;5.090;2024-03-23T07:59:04;9.40;81.30
69895;DHT22;57172;52.034;5.090;2024-03-23T08:01:30;9.30;78.50
69895;DHT22;57172;52.034;5.090;2024-03-23T08:03:55;9.00;77.90
69895;DHT22;57172;52.034;5.090;2024-03-23T08:06:21;8.90;77.50
69895;DHT22;57172;52.034;5.090;2024-03-23T08:08:54;8.80;78.00
69895;DHT22;57172;52.034;5.090;2024-03-23T08:11:30;8.70;78.60
69895;DHT22;57172;52.034;5.090;2024-03-23T08:13:57;8.80;79.30
69895;DHT22;57172;52.034;5.090;2024-03-23T08:16:23;8.90;79.80
69895;DHT22;57172;52.034;5.090;2024-03-23T08:18:52;9.00;79.20
69895;DHT22;57172;52.034;5.090;2024-03-23T08:21:18;9.00;78.50
69895;DHT22;57172;52.034;5.090;2024-03-23T08:23:44;8.90;77.60
69895;DHT22;57172;52.034;5.090;2024-03-23T08:26:13;8.90;77.60
69895;DHT22;57172;52.034;5.090;2024-03-23T08:28:39;8.80;77.30
69895;DHT22;57172;52.034;5.090;2024-03-23T08:31:07;8.80;76.90
69895;DHT22;57172;52.034;5.090;2024-03-23T08:33:33;8.80;80.20
69895;DHT22;57172;52.034;5.090;2024-03-23T08:36:04;9.30;83.50
69895;DHT22;57172;52.034;5.090;2024-03-23T08:38:31;10.00;86.30
69895;DHT22;57172;52.034;5.090;2024-03-23T08:43:24;11.00;80.40
69895;DHT22;57172;52.034;5.090;2024-03-23T08:45:49;11.40;76.00
69895;DHT22;57172;52.034;5.090;2024-03-23T08:48:15;11.60;74.60
69895;DHT22;57172;52.034;5.090;2024-03-23T08:50:41;12.20;76.10
69895;DHT22;57172;52.034;5.090;2024-03-23T08:53:08;12.80;75.10
69895;DHT22;57172;52.034;5.090;2024-03-23T08:55:34;13.00;72.20
69895;DHT22;57172;52.034;5.090;2024-03-23T08:58:01;13.10;68.40
69895;DHT22;57172;52.034;5.090;2024-03-23T09:00:27;12.90;65.50
69895;DHT22;57172;52.034;5.090;2024-03-23T09:02:53;12.60;64.90
69895;DHT22;57172;52.034;5.090;2024-03-23T09:05:19;12.30;64.90
69895;DHT22;57172;52.034;5.090;2024-03-23T09:07:45;12.00;65.10
69895;DHT22;57172;52.034;5.090;2024-03-23T09:10:11;11.60;65.00
69895;DHT22;57172;52.034;5.090;2024-03-23T09:12:37;11.00;65.80
69895;DHT22;57172;52.034;5.090;2024-03-23T09:15:03;10.60;66.70
69895;DHT22;57172;52.034;5.090;2024-03-23T09:17:29;10.40;69.90
69895;DHT22;57172;52.034;5.090;2024-03-23T09:19:55;10.70;71.70
69895;DHT22;57172;52.034;5.090;2024-03-23T09:22:21;10.90;72.20
69895;DHT22;57172;52.034;5.090;2024-03-23T09:24:47;11.30;71.60
69895;DHT22;57172;52.034;5.090;2024-03-23T09:27:12;11.50;69.10
69895;DHT22;57172;52.034;5.090;2024-03-23T09:29:38;11.30;66.10
69895;DHT22;57172;52.034;5.090;2024-03-23T09:32:05;10.90;66.90
69895;DHT22;57172;52.034;5.090;2024-03-23T09:34:31;10.60;67.00
69895;DHT22;57172;52.034;5.090;2024-03-23T09:36:57;10.40;67.80
69895;DHT22;57172;52.034;5.090;2024-03-23T09:39:23;10.60;72.10
69895;DHT22;57172;52.034;5.090;2024-03-23T09:41:48;10.90;70.00
69895;DHT22;57172;52.034;5.090;2024-03-23T09:44:14;10.90;67.90
69895;DHT22;57172;52.034;5.090;2024-03-23T09:46:40;10.80;68.20
69895;DHT22;57172;52.034;5.090;2024-03-23T09:49:07;10.60;68.70
69895;DHT22;57172;52.034;5.090;2024-03-23T09:51:37;10.40;67.10
69895;DHT22;57172;52.034;5.090;2024-03-23T09:54:03;10.50;72.10
69895;DHT22;57172;52.034;5.090;2024-03-23T09:56:29;11.10;70.40
69895;DHT22;57172;52.034;5.090;2024-03-23T09:59:02;11.30;66.90
69895;DHT22;57172;52.034;5.090;2024-03-23T10:01:30;11.30;65.10
69895;DHT22;57172;52.034;5.090;2024-03-23T10:03:56;11.30;65.80
69895;DHT22;57172;52.034;5.090;2024-03-23T10:06:23;11.30;64.80
69895;DHT22;57172;52.034;5.090;2024-03-23T10:08:52;11.10;64.60
69895;DHT22;57172;52.034;5.090;2024-03-23T10:11:20;11.00;64.00
69895;DHT22;57172;52.034;5.090;2024-03-23T10:13:47;10.90;65.60
69895;DHT22;57172;52.034;5.090;2024-03-23T10:16:21;11.40;69.40
69895;DHT22;57172;52.034;5.090;2024-03-23T10:18:48;11.70;65.40
69895;DHT22;57172;52.034;5.090;2024-03-23T10:21:15;11.90;65.00
69895;DHT22;57172;52.034;5.090;2024-03-23T10:23:43;12.30;67.30
69895;DHT22;57172;52.034;5.090;2024-03-23T10:26:25;12.80;62.00
69895;DHT22;57172;52.034;5.090;2024-03-23T10:28:55;13.00;59.00
69895;DHT22;57172;52.034;5.090;2024-03-23T10:31:28;12.60;58.90
69895;DHT22;57172;52.034;5.090;2024-03-23T10:33:54;12.10;59.90
69895;DHT22;57172;52.034;5.090;2024-03-23T10:36:21;11.30;61.80
69895;DHT22;57172;52.034;5.090;2024-03-23T10:38:50;10.90;65.40
69895;DHT22;57172;52.034;5.090;2024-03-23T10:41:17;11.00;69.80
69895;DHT22;57172;52.034;5.090;2024-03-23T10:43:47;11.40;68.50
69895;DHT22;57172;52.034;5.090;2024-03-23T10:46:13;11.60;67.90
69895;DHT22;57172;52.034;5.090;2024-03-23T10:48:39;11.70;67.70
69895;DHT22;57172;52.034;5.090;2024-03-23T10:51:08;11.80;66.80
69895;DHT22;57172;52.034;5.090;2024-03-23T10:53:35;11.70;66.50
69895;DHT22;57172;52.034;5.090;2024-03-23T10:56:04;11.50;66.20
69895;DHT22;57172;52.034;5.090;2024-03-23T10:58:44;11.10;67.30
69895;DHT22;57172;52.034;5.090;2024-03-23T11:01:14;10.80;67.70
69895;DHT22;57172;52.034;5.090;2024-03-23T11:03:45;10.50;67.70
69895;DHT22;57172;52.034;5.090;2024-03-23T11:06:35;10.30;68.70
69895;DHT22;57172;52.034;5.090;2024-03-23T11:09:01;10.30;69.70
69895;DHT22;57172;52.034;5.090;2024-03-23T11:11:27;10.30;69.60
69895;DHT22;57172;52.034;5.090;2024-03-23T11:13:54;10.20;69.10
69895;DHT22;57172;52.034;5.090;2024-03-23T11:16:25;10.10;69.10
69895;DHT22;57172;52.034;5.090;2024-03-23T11:19:36;10.10;69.60
69895;DHT22;57172;52.034;5.090;2024-03-23T11:22:02;10.20;70.80
69895;DHT22;57172;52.034;5.090;2024-03-23T11:24:29;11.00;75.00
69895;DHT22;57172;52.034;5.090;2024-03-23T11:26:55;12.00;72.00
69895;DHT22;57172;52.034;5.090;2024-03-23T11:29:21;12.30;64.00
69895;DHT22;57172;52.034;5.090;2024-03-23T11:31:48;12.10;64.00
69895;DHT22;57172;52.034;5.090;2024-03-23T11:34:21;12.10;62.10
69895;DHT22;57172;52.034;5.090;2024-03-23T11:36:48;12.00;61.50
69895;DHT22;57172;52.034;5.090;2024-03-23T11:39:20;11.90;63.70
69895;DHT22;57172;52.034;5.090;2024-03-23T11:41:51;12.50;63.00
69895;DHT22;57172;52.034;5.090;2024-03-23T11:44:22;12.70;60.40
69895;DHT22;57172;52.034;5.090;2024-03-23T11:46:49;12.50;59.40
69895;DHT22;57172;52.034;5.090;2024-03-23T11:49:28;12.20;58.90
69895;DHT22;57172;52.034;5.090;2024-03-23T11:51:55;11.80;59.70
69895;DHT22;57172;52.034;5.090;2024-03-23T11:54:23;11.60;60.40
69895;DHT22;57172;52.034;5.090;2024-03-23T11:57:04;11.50;62.50
69895;DHT22;57172;52.034;5.090;2024-03-23T11:59:34;12.20;68.50
69895;DHT22;57172;52.034;5.090;2024-03-23T12:02:04;13.40;67.70
69895;DHT22;57172;52.034;5.090;2024-03-23T12:04:31;14.30;62.50
69895;DHT22;57172;52.034;5.090;2024-03-23T12:07:24;14.70;59.50
69895;DHT22;57172;52.034;5.090;2024-03-23T12:10:10;14.90;56.20
69895;DHT22;57172;52.034;5.090;2024-03-23T12:12:36;14.90;54.10
69895;DHT22;57172;52.034;5.090;2024-03-23T12:15:06;14.30;51.60
69895;DHT22;57172;52.034;5.090;2024-03-23T12:17:34;13.70;53.20
69895;DHT22;57172;52.034;5.090;2024-03-23T12:20:03;13.30;53.30
69895;DHT22;57172;52.034;5.090;2024-03-23T12:22:30;12.90;53.10
69895;DHT22;57172;52.034;5.090;2024-03-23T12:24:56;12.60;53.80
69895;DHT22;57172;52.034;5.090;2024-03-23T12:27:23;12.40;53.80
69895;DHT22;57172;52.034;5.090;2024-03-23T12:29:49;12.10;54.20
69895;DHT22;57172;52.034;5.090;2024-03-23T12:32:15;12.20;55.80
69895;DHT22;57172;52.034;5.090;2024-03-23T12:34:42;12.30;54.30
69895;DHT22;57172;52.034;5.090;2024-03-23T12:37:08;12.00;55.00
69895;DHT22;57172;52.034;5.090;2024-03-23T12:39:35;11.80;54.80
69895;DHT22;57172;52.034;5.090;2024-03-23T12:42:01;11.90;57.10
69895;DHT22;57172;52.034;5.090;2024-03-23T12:44:28;12.40;55.70
69895;DHT22;57172;52.034;5.090;2024-03-23T12:46:54;13.10;57.20
69895;DHT22;57172;52.034;5.090;2024-03-23T12:49:20;13.80;55.30
69895;DHT22;57172;52.034;5.090;2024-03-23T12:51:55;13.70;52.00
69895;DHT22;57172;52.034;5.090;2024-03-23T12:54:25;13.30;52.70
69895;DHT22;57172;52.034;5.090;2024-03-23T12:56:51;13.20;55.20
69895;DHT22;57172;52.034;5.090;2024-03-23T12:59:16;13.70;56.00
69895;DHT22;57172;52.034;5.090;2024-03-23T13:01:44;14.40;54.30
69895;DHT22;57172;52.034;5.090;2024-03-23T13:04:10;14.90;53.50
69895;DHT22;57172;52.034;5.090;2024-03-23T13:06:37;15.10;51.00
69895;DHT22;57172;52.034;5.090;2024-03-23T13:09:04;14.30;52.20
69895;DHT22;57172;52.034;5.090;2024-03-23T13:11:30;13.10;54.60
69895;DHT22;57172;52.034;5.090;2024-03-23T13:13:56;12.30;57.60
69895;DHT22;57172;52.034;5.090;2024-03-23T13:16:22;11.50;59.60
69895;DHT22;57172;52.034;5.090;2024-03-23T13:18:48;11.30;63.70
69895;DHT22;57172;52.034;5.090;2024-03-23T13:21:15;11.80;66.90
69895;DHT22;57172;52.034;5.090;2024-03-23T13:23:42;12.60;67.60
69895;DHT22;57172;52.034;5.090;2024-03-23T13:26:09;13.10;62.20
69895;DHT22;57172;52.034;5.090;2024-03-23T13:28:35;12.80;60.40
69895;DHT22;57172;52.034;5.090;2024-03-23T13:31:01;12.60;60.40
69895;DHT22;57172;52.034;5.090;2024-03-23T13:33:30;12.20;59.80
69895;DHT22;57172;52.034;5.090;2024-03-23T13:35:59;11.80;58.90
69895;DHT22;57172;52.034;5.090;2024-03-23T13:38:25;11.20;59.70
69895;DHT22;57172;52.034;5.090;2024-03-23T13:40:58;10.10;60.70
69895;DHT22;57172;52.034;5.090;2024-03-23T13:43:25;9.20;65.20
69895;DHT22;57172;52.034;5.090;2024-03-23T13:45:58;9.20;70.60
69895;DHT22;57172;52.034;5.090;2024-03-23T13:48:26;9.60;72.70
69895;DHT22;57172;52.034;5.090;2024-03-23T13:51:03;10.10;73.60
69895;DHT22;57172;52.034;5.090;2024-03-23T13:53:29;10.70;73.90
69895;DHT22;57172;52.034;5.090;2024-03-23T13:55:55;11.50;74.60
69895;DHT22;57172;52.034;5.090;2024-03-23T13:58:21;12.30;71.50
69895;DHT22;57172;52.034;5.090;2024-03-23T14:00:49;12.80;70.70
69895;DHT22;57172;52.034;5.090;2024-03-23T14:03:15;13.20;70.10
69895;DHT22;57172;52.034;5.090;2024-03-23T14:05:41;13.60;67.10
69895;DHT22;57172;52.034;5.090;2024-03-23T14:08:08;13.30;65.30
69895;DHT22;57172;52.034;5.090;2024-03-23T14:10:35;12.90;65.40
69895;DHT22;57172;52.034;5.090;2024-03-23T14:13:04;12.40;66.00
69895;DHT22;57172;52.034;5.090;2024-03-23T14:15:30;12.00;67.30
69895;DHT22;57172;52.034;5.090;2024-03-23T14:17:56;11.80;66.60
69895;DHT22;57172;52.034;5.090;2024-03-23T14:20:23;11.60;68.10
69895;DHT22;57172;52.034;5.090;2024-03-23T14:22:52;11.90;70.50
69895;DHT22;57172;52.034;5.090;2024-03-23T14:25:18;12.50;71.20
69895;DHT22;57172;52.034;5.090;2024-03-23T14:27:45;13.10;65.90
69895;DHT22;57172;52.034;5.090;2024-03-23T14:30:11;13.10;64.30
69895;DHT22;57172;52.034;5.090;2024-03-23T14:32:38;13.30;65.20
69895;DHT22;57172;52.034;5.090;2024-03-23T14:35:05;13.70;61.20
69895;DHT22;57172;52.034;5.090;2024-03-23T14:37:31;13.80;61.70
69895;DHT22;57172;52.034;5.090;2024-03-23T14:39:58;13.90;60.30
69895;DHT22;57172;52.034;5.090;2024-03-23T14:42:24;14.00;57.40
69895;DHT22;57172;52.034;5.090;2024-03-23T14:44:51;13.90;57.60
69895;DHT22;57172;52.034;5.090;2024-03-23T14:47:17;13.90;57.20
69895;DHT22;57172;52.034;5.090;2024-03-23T14:49:44;13.90;56.70
69895;DHT22;57172;52.034;5.090;2024-03-23T14:52:14;14.10;54.00
69895;DHT22;57172;52.034;5.090;2024-03-23T14:54:40;13.90;54.60
69895;DHT22;57172;52.034;5.090;2024-03-23T14:57:06;14.10;55.10
69895;DHT22;57172;52.034;5.090;2024-03-23T14:59:35;14.10;54.50
69895;DHT22;57172;52.034;5.090;2024-03-23T15:02:01;14.00;55.00
69895;DHT22;57172;52.034;5.090;2024-03-23T15:04:27;14.20;55.20
69895;DHT22;57172;52.034;5.090;2024-03-23T15:06:53;14.40;54.30
69895;DHT22;57172;52.034;5.090;2024-03-23T15:09:19;14.40;53.90
69895;DHT22;57172;52.034;5.090;2024-03-23T15:11:45;14.30;52.70
69895;DHT22;57172;52.034;5.090;2024-03-23T15:14:11;14.20;52.30
69895;DHT22;57172;52.034;5.090;2024-03-23T15:16:37;14.00;52.70
69895;DHT22;57172;52.034;5.090;2024-03-23T15:19:03;13.90;53.40
69895;DHT22;57172;52.034;5.090;2024-03-23T15:21:32;13.80;52.20
69895;DHT22;57172;52.034;5.090;2024-03-23T15:23:58;13.20;52.70
69895;DHT22;57172;52.034;5.090;2024-03-23T15:26:24;12.70;53.80
69895;DHT22;57172;52.034;5.090;2024-03-23T15:28:50;12.30;54.80
69895;DHT22;57172;52.034;5.090;2024-03-23T15:31:25;11.90;55.70
69895;DHT22;57172;52.034;5.090;2024-03-23T15:33:51;11.40;56.50
69895;DHT22;57172;52.034;5.090;2024-03-23T15:36:17;11.10;57.60
69895;DHT22;57172;52.034;5.090;2024-03-23T15:38:43;10.90;58.60
69895;DHT22;57172;52.034;5.090;2024-03-23T15:41:09;10.70;59.90
69895;DHT22;57172;52.034;5.090;2024-03-23T15:43:35;10.50;61.50
69895;DHT22;57172;52.034;5.090;2024-03-23T15:46:03;10.50;63.70
69895;DHT22;57172;52.034;5.090;2024-03-23T15:48:30;10.70;64.00
69895;DHT22;57172;52.034;5.090;2024-03-23T15:50:57;10.90;63.80
69895;DHT22;57172;52.034;5.090;2024-03-23T15:53:25;11.20;62.90
69895;DHT22;57172;52.034;5.090;2024-03-23T15:55:55;11.20;61.70
69895;DHT22;57172;52.034;5.090;2024-03-23T15:58:21;11.30;60.80
69895;DHT22;57172;52.034;5.090;2024-03-23T16:00:58;11.30;60.60
69895;DHT22;57172;52.034;5.090;2024-03-23T16:03:26;11.40;59.40
69895;DHT22;57172;52.034;5.090;2024-03-23T16:05:56;11.30;59.10
69895;DHT22;57172;52.034;5.090;2024-03-23T16:08:23;11.20;58.20
69895;DHT22;57172;52.034;5.090;2024-03-23T16:10:49;11.00;58.20
69895;DHT22;57172;52.034;5.090;2024-03-23T16:13:15;10.80;58.70
69895;DHT22;57172;52.034;5.090;2024-03-23T16:15:42;10.70;58.70
69895;DHT22;57172;52.034;5.090;2024-03-23T16:18:08;10.60;59.10
69895;DHT22;57172;52.034;5.090;2024-03-23T16:20:34;10.50;59.40
69895;DHT22;57172;52.034;5.090;2024-03-23T16:23:00;10.50;59.80
69895;DHT22;57172;52.034;5.090;2024-03-23T16:25:26;10.40;60.20
69895;DHT22;57172;52.034;5.090;2024-03-23T16:27:53;10.40;60.70
69895;DHT22;57172;52.034;5.090;2024-03-23T16:30:19;10.50;60.50
69895;DHT22;57172;52.034;5.090;2024-03-23T16:32:46;10.70;60.40